Time;durP1;ratioP1;P1;durP2;ratioP2;P2;SDS_P1;SDS_P2;PMS_P1;PMS_P2;Temp;Humidity;BMP_temperature;BMP_pressure;BME280_temperature;BME280_humidity;BME280_pressure;Samples;Min_cycle;Max_cycle;Signal;HPM_P1;HPM_P2
2022/04/24 00:00:37;;;;;;;3.95;3.65;;;;;;;10.80;63.37;96733.56;4086406;29;20238;-53
2022/04/24 00:02:40;;;;;;;4.38;3.97;;;;;;;10.90;62.92;96734.25;4116890;28;20213;-52
2022/04/24 00:04:42;;;;;;;6.88;3.38;;;;;;;10.85;63.08;96731.56;4089124;28;20220;-53
2022/04/24 00:06:46;;;;;;;4.25;3.85;;;;;;;10.95;63.14;96734.16;4083928;29;20230;-53
2022/04/24 00:08:49;;;;;;;3.70;3.40;;;;;;;10.87;63.29;96727.75;4098439;28;20237;-54
2022/04/24 00:10:51;;;;;;;4.03;3.72;;;;;;;10.90;63.07;96726.03;4098360;28;20270;-55
2022/04/24 00:12:53;;;;;;;4.90;4.43;;;;;;;10.88;63.14;96721.16;4084294;28;20204;-54
2022/04/24 00:14:54;;;;;;;4.57;4.18;;;;;;;10.83;63.24;96717.38;4086303;28;20211;-54
2022/04/24 00:16:56;;;;;;;8.75;6.00;;;;;;;10.82;63.24;96714.94;4087466;28;20207;-53
2022/04/24 00:18:58;;;;;;;4.55;3.33;;;;;;;10.76;63.40;96723.53;4083708;28;20251;-52
2022/04/24 00:21:00;;;;;;;4.05;3.72;;;;;;;10.73;63.56;96715.88;4089699;29;20250;-53
2022/04/24 00:23:01;;;;;;;3.97;3.40;;;;;;;10.79;63.06;96710.84;4101449;28;20211;-55
2022/04/24 00:25:03;;;;;;;4.40;4.00;;;;;;;10.81;63.19;96720.72;4080695;29;20242;-54
2022/04/24 00:27:07;;;;;;;4.85;4.45;;;;;;;10.88;63.03;96712.97;4096451;28;20589;-54
2022/04/24 00:29:09;;;;;;;4.38;3.58;;;;;;;10.88;63.06;96712.97;4090225;28;20302;-54
2022/04/24 00:31:11;;;;;;;4.45;4.05;;;;;;;10.82;63.06;96711.41;4101140;28;20305;-54
2022/04/24 00:33:12;;;;;;;3.83;3.53;;;;;;;10.79;63.03;96705.38;4116699;28;20213;-53
2022/04/24 00:35:14;;;;;;;3.75;3.45;;;;;;;10.82;63.00;96714.13;4089766;28;20258;-55
2022/04/24 00:37:16;;;;;;;3.38;3.08;;;;;;;10.84;62.95;96708.06;4089599;29;20211;-54
2022/04/24 00:39:17;;;;;;;3.97;3.67;;;;;;;10.82;63.06;96719.59;4082330;28;20735;-56
2022/04/24 00:41:19;;;;;;;3.97;3.67;;;;;;;10.81;63.13;96712.50;4113967;28;20230;-56
2022/04/24 00:43:21;;;;;;;4.63;3.55;;;;;;;10.78;63.15;96711.97;4085400;29;20281;-53
2022/04/24 00:45:22;;;;;;;3.88;3.58;;;;;;;10.90;63.01;96712.34;4116826;28;20221;-54
2022/04/24 00:47:24;;;;;;;4.10;3.10;;;;;;;10.98;62.95;96713.63;4090824;29;20262;-52
2022/04/24 00:49:26;;;;;;;4.13;3.72;;;;;;;10.90;62.89;96706.09;4091394;29;20212;-53
2022/04/24 00:51:29;;;;;;;4.05;3.47;;;;;;;10.82;62.83;96704.81;4088876;29;20211;-55
2022/04/24 00:53:32;;;;;;;5.18;3.38;;;;;;;10.79;63.09;96710.84;4116561;28;20285;-55
2022/04/24 00:55:33;;;;;;;4.78;3.75;;;;;;;10.82;63.23;96700.44;4091477;29;20250;-53
2022/04/24 00:57:35;;;;;;;4.38;3.97;;;;;;;10.76;63.06;96710.63;4115687;28;20258;-55
2022/04/24 00:59:37;;;;;;;3.80;3.45;;;;;;;10.75;63.10;96713.69;4099160;28;20845;-55
2022/04/24 01:01:42;;;;;;;3.95;3.55;;;;;;;10.77;63.14;96702.16;4095838;28;20281;-55
2022/04/24 01:03:44;;;;;;;3.28;2.97;;;;;;;10.82;62.86;96710.28;4098189;28;20212;-56
2022/04/24 01:05:49;;;;;;;3.60;3.30;;;;;;;10.82;62.92;96705.94;4104751;28;20250;-53
2022/04/24 01:07:50;;;;;;;4.03;3.72;;;;;;;10.77;63.03;96706.81;4103733;28;20279;-54
2022/04/24 01:09:52;;;;;;;3.95;3.65;;;;;;;10.80;62.92;96706.22;4092200;29;20965;-55
2022/04/24 01:11:55;;;;;;;3.50;3.15;;;;;;;10.84;62.92;96708.06;4098472;28;20354;-53
2022/04/24 01:13:57;;;;;;;3.55;3.25;;;;;;;10.82;63.20;96708.66;4086918;29;20263;-54
2022/04/24 01:15:59;;;;;;;3.90;3.55;;;;;;;10.82;63.11;96703.97;4088465;29;20220;-55
2022/04/24 01:18:01;;;;;;;3.58;3.30;;;;;;;10.84;62.97;96699.84;4118938;28;20210;-56
2022/04/24 01:20:03;;;;;;;4.20;3.70;;;;;;;10.94;63.01;96699.72;4103041;28;20590;-56
2022/04/24 01:22:04;;;;;;;3.88;3.58;;;;;;;10.88;62.89;96704.75;4091850;29;20223;-54
2022/04/24 01:24:07;;;;;;;3.60;3.30;;;;;;;10.79;63.57;96705.38;4104795;28;20620;-55
2022/04/24 01:26:09;;;;;;;3.97;3.67;;;;;;;10.82;63.03;96707.56;4102943;28;20297;-55
2022/04/24 01:28:11;;;;;;;3.30;3.10;;;;;;;10.87;62.65;96694.91;4121416;28;20236;-55
2022/04/24 01:30:13;;;;;;;3.95;3.58;;;;;;;10.82;62.73;96703.97;4090365;29;20207;-55
2022/04/24 01:32:14;;;;;;;4.38;3.97;;;;;;;10.87;62.85;96698.44;4089842;28;20206;-54
2022/04/24 01:34:17;;;;;;;4.60;4.18;;;;;;;10.87;62.38;96700.38;4096118;28;20231;-54
2022/04/24 01:36:19;;;;;;;3.80;3.53;;;;;;;10.87;62.73;96697.66;4101591;28;20669;-54
2022/04/24 01:38:21;;;;;;;4.18;3.78;;;;;;;10.96;62.47;96689.28;4105876;28;20375;-54
2022/04/24 01:40:23;;;;;;;4.20;3.22;;;;;;;10.84;62.62;96683.44;4090783;28;20211;-54
2022/04/24 01:42:24;;;;;;;3.92;3.63;;;;;;;10.90;62.40;96678.72;4099335;28;20692;-55
2022/04/24 01:44:26;;;;;;;4.25;3.85;;;;;;;10.92;62.25;96680.03;4092831;29;20259;-54
2022/04/24 01:46:28;;;;;;;5.28;4.32;;;;;;;10.99;62.00;96682.41;4087135;28;20593;-53
2022/04/24 01:48:33;;;;;;;3.67;3.35;;;;;;;10.98;62.07;96680.78;4087333;28;20207;-53
2022/04/24 01:50:35;;;;;;;4.13;3.65;;;;;;;10.92;62.22;96677.28;4102739;28;20207;-54
2022/04/24 01:52:36;;;;;;;4.60;4.20;;;;;;;10.92;62.19;96674.53;4102379;28;20215;-53
2022/04/24 01:54:38;;;;;;;3.65;3.35;;;;;;;10.97;61.97;96679.16;4093346;29;20337;-53
2022/04/24 01:56:40;;;;;;;3.78;3.40;;;;;;;10.95;62.45;96690.38;4091994;28;20231;-54
2022/04/24 01:58:42;;;;;;;3.30;3.00;;;;;;;10.95;62.37;96681.34;4101475;28;20267;-55
2022/04/24 02:00:43;;;;;;;3.35;2.90;;;;;;;10.97;62.54;96679.16;4102164;28;21890;-55
2022/04/24 02:02:46;;;;;;;3.55;3.25;;;;;;;10.98;62.51;96687.03;4092397;28;20658;-53
2022/04/24 02:04:48;;;;;;;4.22;3.83;;;;;;;10.97;62.73;96688.16;4101394;28;20203;-53
2022/04/24 02:06:50;;;;;;;3.88;3.45;;;;;;;10.96;62.93;96681.06;4085831;29;20211;-55
2022/04/24 02:08:52;;;;;;;3.83;3.53;;;;;;;10.94;63.06;96686.03;4071206;29;20219;-52
2022/04/24 02:10:53;;;;;;;3.33;3.00;;;;;;;10.97;62.91;96701.84;4086970;28;20764;-52
2022/04/24 02:12:55;;;;;;;3.70;3.40;;;;;;;10.94;62.94;96696.16;4102426;28;20204;-52
2022/04/24 02:14:58;;;;;;;2.75;2.55;;;;;;;10.93;62.89;96703.56;4094769;28;20219;-51
2022/04/24 02:16:59;;;;;;;3.42;3.13;;;;;;;10.94;62.96;96701.63;4118239;28;20273;-55
2022/04/24 02:19:01;;;;;;;3.03;2.83;;;;;;;10.97;62.67;96712.78;4095668;29;20211;-54
2022/04/24 02:21:03;;;;;;;3.53;3.22;;;;;;;10.99;62.81;96718.81;4095316;28;20711;-54
2022/04/24 02:23:05;;;;;;;4.07;3.20;;;;;;;10.98;62.74;96719.09;4117192;28;20652;-55
2022/04/24 02:25:07;;;;;;;3.83;2.80;;;;;;;10.94;62.85;96723.50;4084829;28;20637;-55
2022/04/24 02:27:09;;;;;;;3.92;3.30;;;;;;;10.93;62.98;96728.19;4084890;28;20331;-55
2022/04/24 02:29:11;;;;;;;3.65;3.35;;;;;;;10.94;62.97;96729.81;4106569;28;20310;-54
2022/04/24 02:31:13;;;;;;;3.80;3.50;;;;;;;10.96;63.30;96733.06;4099364;28;20259;-53
2022/04/24 02:33:14;;;;;;;4.15;3.75;;;;;;;11.00;63.05;96736.84;4088299;28;20203;-54
2022/04/24 02:35:16;;;;;;;4.13;3.75;;;;;;;11.12;62.98;96739.91;4114990;28;20289;-55
2022/04/24 02:37:19;;;;;;;3.78;3.38;;;;;;;11.01;63.18;96749.41;4087361;28;20238;-54
2022/04/24 02:39:20;;;;;;;3.45;3.15;;;;;;;10.96;63.25;96745.91;4091887;29;20633;-54
2022/04/24 02:41:22;;;;;;;3.40;3.13;;;;;;;10.95;63.01;96753.31;4086777;28;20590;-55
2022/04/24 02:43:24;;;;;;;4.15;3.85;;;;;;;10.96;63.27;96760.41;4087587;28;20777;-55
2022/04/24 02:45:26;;;;;;;3.03;2.72;;;;;;;10.96;63.06;96759.59;4119007;28;20231;-52
2022/04/24 02:47:27;;;;;;;3.55;3.25;;;;;;;10.95;63.17;96758.81;4093414;28;20262;-54
2022/04/24 02:49:29;;;;;;;3.17;2.97;;;;;;;11.00;63.45;96760.66;4089775;28;20215;-54
2022/04/24 02:51:31;;;;;;;3.92;3.53;;;;;;;11.07;63.63;96761.91;4101315;28;20744;-54
2022/04/24 02:53:32;;;;;;;4.43;4.13;;;;;;;11.03;63.17;96771.81;4103144;28;20210;-54
2022/04/24 02:55:34;;;;;;;3.60;3.30;;;;;;;11.00;63.47;96768.84;4100857;28;20250;-54
2022/04/24 02:57:37;;;;;;;3.65;3.38;;;;;;;10.97;63.19;96772.19;4092198;28;20208;-53
2022/04/24 02:59:42;;;;;;;4.13;3.42;;;;;;;10.93;63.71;96771.97;4092036;28;20215;-51
2022/04/24 03:01:48;;;;;;;3.47;3.17;;;;;;;10.92;63.58;96770.31;4091028;28;20285;-53
2022/04/24 03:03:50;;;;;;;3.80;3.25;;;;;;;10.97;63.61;96772.19;4121030;28;20210;-54
2022/04/24 03:05:52;;;;;;;5.53;3.88;;;;;;;10.93;63.47;96774.72;4104350;28;20239;-54
2022/04/24 03:07:53;;;;;;;4.65;4.25;;;;;;;10.93;63.44;96771.97;4119082;28;20207;-54
2022/04/24 03:09:55;;;;;;;4.18;3.78;;;;;;;10.93;63.58;96771.97;4100776;28;20258;-55
2022/04/24 03:11:57;;;;;;;3.95;3.45;;;;;;;10.90;63.95;96767.06;4104014;28;20211;-54
2022/04/24 03:13:58;;;;;;;4.68;4.28;;;;;;;11.01;64.32;96775.94;4117315;28;21037;-53
2022/04/24 03:16:00;;;;;;;4.82;4.43;;;;;;;10.90;64.26;96775.28;4086238;28;20228;-54
2022/04/24 03:18:02;;;;;;;4.65;3.92;;;;;;;10.88;64.56;96773.16;4107657;28;20253;-54
2022/04/24 03:20:06;;;;;;;4.10;3.70;;;;;;;10.87;64.45;96777.00;4092880;29;20725;-54
2022/04/24 03:22:08;;;;;;;3.38;2.95;;;;;;;10.88;64.28;96773.16;4102189;28;20223;-55
2022/04/24 03:24:10;;;;;;;3.63;3.33;;;;;;;10.88;64.64;96779.41;4093608;28;20278;-53
2022/04/24 03:26:13;;;;;;;3.90;3.30;;;;;;;10.87;64.74;96774.25;4102395;28;20230;-52
2022/04/24 03:28:15;;;;;;;4.22;3.83;;;;;;;10.86;64.82;96778.91;4091089;28;20208;-52
2022/04/24 03:30:17;;;;;;;4.60;3.05;;;;;;;10.89;64.88;96778.31;4100876;28;20231;-53
2022/04/24 03:32:18;;;;;;;2.67;2.47;;;;;;;10.90;64.73;96774.47;4102431;28;20237;-52
2022/04/24 03:34:24;;;;;;;3.13;2.90;;;;;;;10.88;65.26;96774.78;4099769;28;20211;-53
2022/04/24 03:36:26;;;;;;;4.95;4.15;;;;;;;10.89;65.58;96776.41;4090554;28;20247;-53
2022/04/24 03:38:27;;;;;;;4.10;3.80;;;;;;;10.89;65.21;96776.41;4086356;28;20282;-55
2022/04/24 03:40:29;;;;;;;4.38;3.90;;;;;;;10.91;65.16;96779.63;4084451;29;20207;-51
2022/04/24 03:42:32;;;;;;;3.53;3.30;;;;;;;10.96;65.19;96782.31;4099199;28;20251;-56
2022/04/24 03:44:34;;;;;;;4.18;3.78;;;;;;;10.93;65.41;96782.91;4091389;28;20756;-55
2022/04/24 03:46:36;;;;;;;4.65;4.25;;;;;;;10.91;65.75;96787.84;4090933;29;20282;-55
2022/04/24 03:48:37;;;;;;;4.60;4.22;;;;;;;10.89;65.56;96781.03;4120901;28;20214;-53
2022/04/24 03:50:39;;;;;;;3.58;3.22;;;;;;;10.88;65.36;96789.56;4120552;28;20206;-54
2022/04/24 03:52:41;;;;;;;3.92;3.63;;;;;;;10.78;66.51;96783.09;4101440;28;20195;-54
2022/04/24 03:54:43;;;;;;;3.97;3.67;;;;;;;10.64;66.96;96786.03;4116808;28;20206;-54
2022/04/24 03:56:45;;;;;;;4.57;4.18;;;;;;;10.66;67.10;96789.28;4088971;28;20622;-54
2022/04/24 03:58:47;;;;;;;4.78;4.30;;;;;;;10.57;67.17;96800.09;4103686;28;20217;-53
2022/04/24 04:00:48;;;;;;;4.95;4.55;;;;;;;10.54;66.81;96799.84;4090862;29;20322;-52
2022/04/24 04:02:50;;;;;;;5.40;4.25;;;;;;;10.52;66.95;96802.03;4101471;28;20258;-54
2022/04/24 04:04:52;;;;;;;4.75;4.38;;;;;;;10.57;66.83;96799.25;4115313;28;20296;-52
2022/04/24 04:06:54;;;;;;;6.18;4.57;;;;;;;10.42;67.21;96804.91;4119908;28;20203;-53
2022/04/24 04:08:56;;;;;;;4.18;3.80;;;;;;;10.43;67.07;96804.63;4089150;28;20212;-52
2022/04/24 04:10:59;;;;;;;5.38;4.88;;;;;;;10.57;66.61;96799.25;4100679;28;20709;-52
2022/04/24 04:13:06;;;;;;;4.50;3.78;;;;;;;10.62;66.32;96807.41;4083740;28;20210;-53
2022/04/24 04:15:08;;;;;;;3.58;3.30;;;;;;;10.52;66.04;96808.34;4083386;28;20215;-54
2022/04/24 04:17:10;;;;;;;4.15;3.75;;;;;;;10.59;65.35;96802.50;4103613;28;20199;-53
2022/04/24 04:19:12;;;;;;;3.95;3.55;;;;;;;10.42;65.80;96805.72;4090385;29;20298;-54
2022/04/24 04:21:13;;;;;;;5.15;4.53;;;;;;;10.49;65.74;96802.63;4086657;28;20239;-54
2022/04/24 04:23:16;;;;;;;4.35;3.90;;;;;;;10.52;65.63;96812.97;4098826;28;20230;-54
2022/04/24 04:25:22;;;;;;;3.28;3.08;;;;;;;10.57;65.73;96804.72;4092186;29;20278;-54
2022/04/24 04:27:26;;;;;;;3.88;3.47;;;;;;;10.63;65.40;96811.75;4101206;28;20207;-56
2022/04/24 04:29:27;;;;;;;4.28;3.88;;;;;;;10.66;65.31;96814.72;4088363;28;20690;-52
2022/04/24 04:31:35;;;;;;;3.50;3.17;;;;;;;10.66;65.52;96811.16;4090634;29;20235;-51
2022/04/24 04:33:36;;;;;;;4.13;3.72;;;;;;;10.70;65.13;96818.53;4121936;28;20568;-53
2022/04/24 04:35:38;;;;;;;4.15;3.78;;;;;;;10.72;65.27;96818.22;4090975;28;20293;-55
2022/04/24 04:37:40;;;;;;;4.22;3.92;;;;;;;10.72;65.37;96818.22;4093115;28;21044;-55
2022/04/24 04:39:42;;;;;;;3.92;3.47;;;;;;;10.73;65.73;96815.19;4106450;28;20226;-55
2022/04/24 04:41:43;;;;;;;3.33;3.03;;;;;;;10.76;65.62;96819.25;4094166;29;20226;-54
2022/04/24 04:43:45;;;;;;;10.80;4.18;;;;;;;10.75;65.79;96818.44;4089463;28;20272;-52
2022/04/24 04:45:47;;;;;;;4.00;3.60;;;;;;;10.73;65.83;96819.84;4087432;28;20647;-53
2022/04/24 04:47:49;;;;;;;4.28;3.97;;;;;;;10.74;65.83;96816.81;4119102;28;20316;-52
2022/04/24 04:49:50;;;;;;;3.50;3.22;;;;;;;10.74;66.05;96814.06;4105006;28;20247;-54
2022/04/24 04:51:53;;;;;;;3.15;2.95;;;;;;;10.77;66.01;96820.88;4118799;28;20656;-52
2022/04/24 04:53:55;;;;;;;4.90;4.50;;;;;;;10.77;65.91;96826.34;4121724;28;20260;-53
2022/04/24 04:55:57;;;;;;;4.90;4.47;;;;;;;10.76;66.08;96825.53;4092068;28;20223;-52
2022/04/24 04:57:59;;;;;;;4.13;3.75;;;;;;;10.77;65.94;96827.97;4087096;29;20208;-52
2022/04/24 05:00:02;;;;;;;4.00;3.58;;;;;;;10.75;66.28;96823.09;4103018;28;20357;-54
2022/04/24 05:02:04;;;;;;;6.18;3.72;;;;;;;10.77;66.06;96831.84;4099309;28;20305;-53
2022/04/24 05:04:07;;;;;;;5.25;3.67;;;;;;;10.75;66.32;96831.31;4102424;28;20207;-53
2022/04/24 05:06:09;;;;;;;3.63;3.33;;;;;;;10.75;66.54;96829.38;4086279;28;20227;-53
2022/04/24 05:08:10;;;;;;;4.57;4.18;;;;;;;10.77;66.47;96829.09;4100650;28;20245;-53
2022/04/24 05:10:12;;;;;;;3.80;3.50;;;;;;;10.75;66.45;96832.13;4086854;29;20220;-54
2022/04/24 05:12:14;;;;;;;4.20;3.83;;;;;;;10.76;66.18;96819.25;4093170;28;20226;-52
2022/04/24 05:14:16;;;;;;;4.15;3.75;;;;;;;10.76;66.39;96830.22;4085297;28;20606;-54
2022/04/24 05:16:17;;;;;;;3.92;3.63;;;;;;;10.76;66.18;96819.25;4090358;28;20223;-54
2022/04/24 05:18:20;;;;;;;3.95;3.47;;;;;;;10.75;66.42;96826.63;4120309;28;20241;-52
2022/04/24 05:20:21;;;;;;;3.55;3.33;;;;;;;10.74;66.16;96833.22;4103755;28;20273;-53
2022/04/24 05:22:23;;;;;;;3.92;3.63;;;;;;;10.75;66.15;96828.59;4089899;29;20765;-53
2022/04/24 05:24:25;;;;;;;4.50;3.28;;;;;;;10.75;66.44;96836.78;4092561;29;20234;-53
2022/04/24 05:26:27;;;;;;;4.95;4.50;;;;;;;10.73;66.43;96826.13;4088945;28;20235;-52
2022/04/24 05:28:32;;;;;;;4.53;4.13;;;;;;;10.71;66.57;96830.25;4102453;28;20342;-54
2022/04/24 05:30:35;;;;;;;3.70;3.38;;;;;;;10.73;66.21;96830.78;4071443;29;20236;-53
2022/04/24 05:32:48;;;;;;;3.72;3.42;;;;;;;10.74;66.02;96832.44;4104353;28;20207;-52
2022/04/24 05:34:50;;;;;;;3.78;3.47;;;;;;;10.72;66.14;96840.09;4092914;28;20258;-54
2022/04/24 05:36:52;;;;;;;4.15;3.85;;;;;;;10.71;66.15;96831.09;4091342;29;20216;-53
2022/04/24 05:38:54;;;;;;;4.47;4.07;;;;;;;10.66;65.71;96844.00;4090451;28;20745;-54
2022/04/24 05:40:56;;;;;;;3.80;3.50;;;;;;;10.73;65.16;96841.72;4087146;28;20216;-53
2022/04/24 05:42:58;;;;;;;3.97;3.58;;;;;;;10.71;65.60;96849.41;4101475;28;20312;-52
2022/04/24 05:45:00;;;;;;;5.22;3.72;;;;;;;10.70;65.27;96850.50;4102212;28;20241;-54
2022/04/24 05:47:03;;;;;;;3.10;2.85;;;;;;;10.71;65.51;96849.41;4119974;28;20210;-56
2022/04/24 05:49:05;;;;;;;3.50;3.20;;;;;;;10.71;65.65;96865.81;4088821;29;20252;-55
2022/04/24 05:51:12;;;;;;;3.28;2.97;;;;;;;10.71;65.70;96860.34;4089170;29;20378;-52
2022/04/24 05:53:14;;;;;;;2.80;2.60;;;;;;;10.70;65.91;96859.56;4091763;29;20632;-54
2022/04/24 05:55:16;;;;;;;3.40;2.88;;;;;;;10.70;66.29;96859.56;4085129;28;20223;-54
2022/04/24 05:57:17;;;;;;;3.20;2.92;;;;;;;10.72;66.30;96856.50;4103236;28;20630;-54
2022/04/24 05:59:19;;;;;;;2.80;2.60;;;;;;;10.72;66.32;96859.25;4109787;28;20274;-53
2022/04/24 06:01:24;;;;;;;3.25;2.95;;;;;;;10.72;66.00;96856.50;4086942;29;21000;-53
2022/04/24 06:03:25;;;;;;;2.85;2.65;;;;;;;10.73;66.08;96860.88;4088899;29;20327;-52
2022/04/24 06:05:27;;;;;;;2.88;2.67;;;;;;;10.79;66.25;96857.78;4088344;29;20266;-53
2022/04/24 06:07:29;;;;;;;3.85;3.55;;;;;;;10.74;66.35;96859.78;4101640;28;20237;-52
2022/04/24 06:09:31;;;;;;;3.67;3.03;;;;;;;10.75;66.20;96864.16;4086672;29;20945;-52
2022/04/24 06:11:33;;;;;;;3.10;2.80;;;;;;;10.75;66.13;96867.69;4092935;29;20650;-54
2022/04/24 06:13:34;;;;;;;3.25;2.85;;;;;;;10.75;66.29;96861.41;4100625;28;20246;-55
2022/04/24 06:15:39;;;;;;;3.38;2.80;;;;;;;10.77;66.20;96870.13;4099332;28;20668;-53
2022/04/24 06:17:43;;;;;;;2.60;2.40;;;;;;;10.81;66.07;96871.19;4072426;29;20307;-53
2022/04/24 06:19:44;;;;;;;3.72;3.00;;;;;;;10.81;65.78;96869.25;4102966;28;20215;-51
2022/04/24 06:21:46;;;;;;;2.35;2.22;;;;;;;10.81;65.77;96871.19;4103678;28;20242;-51
2022/04/24 06:23:51;;;;;;;3.05;2.55;;;;;;;10.81;65.70;96871.19;4096731;28;20309;-51
2022/04/24 06:25:53;;;;;;;3.00;2.80;;;;;;;10.89;65.98;96872.16;4093255;29;20293;-54
2022/04/24 06:27:54;;;;;;;3.03;2.38;;;;;;;10.88;66.14;96878.75;4094399;28;20246;-53
2022/04/24 06:29:57;;;;;;;2.38;2.17;;;;;;;10.84;66.42;96866.75;4090886;28;20263;-54
2022/04/24 06:31:59;;;;;;;2.03;1.77;;;;;;;10.85;66.33;96870.31;4088836;29;20283;-51
2022/04/24 06:34:00;;;;;;;2.28;2.15;;;;;;;10.87;66.55;96867.28;4111672;28;20230;-53
2022/04/24 06:36:02;;;;;;;2.08;1.83;;;;;;;10.85;66.69;96876.56;4103865;28;20223;-53
2022/04/24 06:38:04;;;;;;;2.95;2.75;;;;;;;10.85;67.08;96862.91;4088797;28;20255;-53
2022/04/24 06:40:08;;;;;;;6.10;3.30;;;;;;;10.91;67.22;96869.94;4096317;28;20725;-54
2022/04/24 06:42:09;;;;;;;3.58;3.28;;;;;;;10.89;67.16;96872.16;4089384;29;20263;-53
2022/04/24 06:44:11;;;;;;;4.07;3.45;;;;;;;10.88;67.38;96878.75;4076089;29;20212;-53
2022/04/24 06:46:13;;;;;;;3.53;3.17;;;;;;;10.88;67.44;96878.75;4085800;28;20230;-53
2022/04/24 06:48:16;;;;;;;3.75;3.45;;;;;;;10.94;67.39;96888.53;4087847;28;20211;-53
2022/04/24 06:50:18;;;;;;;3.00;2.17;;;;;;;10.97;67.39;96893.41;4099952;28;20207;-52
2022/04/24 06:52:20;;;;;;;5.10;2.28;;;;;;;11.00;67.24;96881.88;4101272;28;20670;-54
2022/04/24 06:54:22;;;;;;;2.55;2.35;;;;;;;11.04;67.16;96887.59;4094378;29;20719;-52
2022/04/24 06:56:23;;;;;;;2.28;2.10;;;;;;;11.06;66.40;96883.47;4102574;28;21040;-53
2022/04/24 06:58:25;;;;;;;3.10;2.60;;;;;;;11.11;66.33;96888.06;4109444;28;20651;-53
2022/04/24 07:00:28;;;;;;;2.65;2.45;;;;;;;11.17;66.11;96882.19;4094477;29;20250;-53
2022/04/24 07:02:53;;;;;;;3.15;2.88;;;;;;;11.26;65.80;96893.31;4089403;28;20227;-54
2022/04/24 07:04:55;;;;;;;2.47;2.28;;;;;;;11.33;65.17;96891.03;4094440;29;20220;-54
2022/04/24 07:06:57;;;;;;;2.80;2.33;;;;;;;11.39;65.09;96896.16;4103152;28;20211;-52
2022/04/24 07:09:01;;;;;;;2.95;2.75;;;;;;;11.34;65.32;96898.97;4104902;28;20207;-55
2022/04/24 07:11:03;;;;;;;2.58;2.38;;;;;;;11.29;65.62;96900.94;4088285;28;20215;-56
2022/04/24 07:13:05;;;;;;;2.13;1.50;;;;;;;11.27;66.19;96904.00;4101865;28;20594;-54
2022/04/24 07:15:07;;;;;;;4.43;2.60;;;;;;;11.25;66.18;96903.44;4095993;29;20686;-55
2022/04/24 07:17:09;;;;;;;2.47;2.28;;;;;;;11.24;66.03;96901.03;4090368;28;20212;-53
2022/04/24 07:19:14;;;;;;;2.58;2.38;;;;;;;11.21;66.85;96907.91;4091083;28;20246;-53
2022/04/24 07:21:18;;;;;;;2.17;1.98;;;;;;;11.17;67.29;96911.53;4119895;28;20698;-54
2022/04/24 07:23:20;;;;;;;2.65;2.33;;;;;;;11.16;67.27;96916.16;4103221;28;20347;-52
2022/04/24 07:25:23;;;;;;;2.05;1.73;;;;;;;11.13;67.37;96903.06;4088493;28;20231;-54
2022/04/24 07:27:25;;;;;;;3.72;2.10;;;;;;;11.04;69.22;96914.97;4094756;29;20222;-54
2022/04/24 07:29:27;;;;;;;2.72;2.47;;;;;;;11.05;68.86;96911.91;4093535;29;20310;-53
2022/04/24 07:31:29;;;;;;;2.83;2.20;;;;;;;11.00;69.39;96914.72;4101768;28;20215;-57
2022/04/24 07:33:31;;;;;;;2.35;2.15;;;;;;;10.98;69.36;96911.44;4096160;29;20290;-53
2022/04/24 07:35:35;;;;;;;2.40;2.20;;;;;;;10.95;70.42;96909.31;4094525;29;20267;-52
2022/04/24 07:37:37;;;;;;;2.65;2.40;;;;;;;10.96;70.74;96908.19;4117619;28;20203;-53
2022/04/24 07:39:38;;;;;;;2.47;2.28;;;;;;;10.99;70.80;96907.63;4119008;28;20238;-54
2022/04/24 07:41:40;;;;;;;4.93;2.45;;;;;;;11.01;71.34;96910.88;4094129;28;20781;-54
2022/04/24 07:43:48;;;;;;;2.90;2.38;;;;;;;11.03;70.98;96919.59;4106845;28;20215;-54
2022/04/24 07:45:50;;;;;;;2.58;2.38;;;;;;;11.11;70.33;96920.91;4090179;29;20261;-53
2022/04/24 07:47:53;;;;;;;2.22;2.03;;;;;;;11.10;70.67;96917.34;4087566;28;20745;-52
2022/04/24 07:49:55;;;;;;;2.50;2.28;;;;;;;11.11;70.33;96918.16;4082878;29;20251;-54
2022/04/24 07:51:56;;;;;;;2.47;1.92;;;;;;;11.05;71.50;96917.38;4083252;29;20258;-53
2022/04/24 07:54:01;;;;;;;2.58;2.38;;;;;;;11.09;70.64;96914.88;4104515;28;20206;-54
2022/04/24 07:56:03;;;;;;;2.40;2.20;;;;;;;11.03;70.41;96916.88;4104929;28;20856;-53
2022/04/24 07:58:13;;;;;;;2.80;2.60;;;;;;;10.89;70.10;96913.22;4087978;28;20207;-51
2022/04/24 08:00:16;;;;;;;3.15;2.88;;;;;;;10.84;69.95;96921.47;4102925;28;20215;-53
2022/04/24 08:02:18;;;;;;;2.42;2.20;;;;;;;10.68;69.92;96921.13;4117467;28;20210;-53
2022/04/24 08:04:20;;;;;;;2.35;2.17;;;;;;;10.74;69.92;96915.28;4100526;28;20238;-53
2022/04/24 08:06:22;;;;;;;3.65;2.63;;;;;;;10.53;71.05;96916.63;4099993;28;20273;-54
2022/04/24 08:08:54;;;;;;;2.60;2.40;;;;;;;10.37;70.87;96908.84;4089919;28;20770;-54
2022/04/24 08:10:57;;;;;;;3.45;3.08;;;;;;;10.48;70.82;96913.13;4077677;29;20692;-53
2022/04/24 08:13:00;;;;;;;3.28;2.97;;;;;;;10.53;70.61;96921.25;4103916;28;20204;-51
2022/04/24 08:15:02;;;;;;;2.78;2.58;;;;;;;10.56;70.81;96916.03;4117787;28;20238;-54
2022/04/24 08:17:03;;;;;;;4.03;3.05;;;;;;;10.45;70.57;96924.63;4085034;29;20222;-54
2022/04/24 08:19:05;;;;;;;3.03;2.80;;;;;;;10.40;70.87;96919.19;4087122;28;20228;-51
2022/04/24 08:21:07;;;;;;;3.40;3.10;;;;;;;10.42;70.96;96920.53;4103983;28;20229;-53
2022/04/24 08:23:10;;;;;;;3.30;3.00;;;;;;;10.41;71.03;96918.13;4094626;29;20274;-51
2022/04/24 08:25:17;;;;;;;2.70;2.50;;;;;;;10.39;72.14;96923.03;4101949;28;20239;-51
2022/04/24 08:27:18;;;;;;;2.78;2.40;;;;;;;10.46;71.93;96920.78;4087586;28;20248;-52
2022/04/24 08:29:24;;;;;;;3.33;3.05;;;;;;;10.38;73.30;96929.59;4105775;28;20274;-52
2022/04/24 08:31:25;;;;;;;4.45;3.97;;;;;;;10.36;73.10;96923.63;4088507;28;20216;-53
2022/04/24 08:33:27;;;;;;;4.40;4.10;;;;;;;10.44;73.30;96931.19;4116973;28;20202;-53
2022/04/24 08:35:29;;;;;;;4.05;3.65;;;;;;;10.42;73.14;96927.94;4088240;28;20231;-53
2022/04/24 08:37:31;;;;;;;3.25;2.95;;;;;;;10.47;72.89;96930.63;4089742;29;20212;-52
2022/04/24 08:39:33;;;;;;;3.95;3.55;;;;;;;10.46;73.34;96928.97;4102691;28;20215;-53
2022/04/24 08:41:37;;;;;;;3.90;3.42;;;;;;;10.51;72.76;96934.41;4087401;29;20204;-53
2022/04/24 08:43:39;;;;;;;4.38;3.97;;;;;;;10.68;72.32;96937.53;4087534;29;20232;-53
2022/04/24 08:45:44;;;;;;;3.30;3.00;;;;;;;10.57;72.80;96936.00;4085265;29;20224;-53
2022/04/24 08:47:46;;;;;;;3.35;3.05;;;;;;;10.72;72.29;96944.03;4118499;28;20348;-53
2022/04/24 08:49:48;;;;;;;3.58;3.28;;;;;;;10.81;72.19;96943.13;4116097;28;20211;-53
2022/04/24 08:51:51;;;;;;;3.75;3.45;;;;;;;10.89;72.05;96947.94;4102457;28;20688;-52
2022/04/24 08:53:53;;;;;;;4.53;4.00;;;;;;;10.94;72.26;96948.72;4118187;28;20202;-52
2022/04/24 08:55:55;;;;;;;6.80;3.72;;;;;;;11.03;72.03;96949.72;4089596;29;20658;-52
2022/04/24 08:57:57;;;;;;;4.32;3.65;;;;;;;11.06;71.62;96951.88;4089211;29;20204;-52
2022/04/24 09:00:00;;;;;;;4.50;4.10;;;;;;;10.99;71.76;96950.59;4117431;28;20203;-51
2022/04/24 09:02:22;;;;;;;3.65;3.33;;;;;;;10.99;71.78;96950.59;4091178;28;20647;-52
2022/04/24 09:04:26;;;;;;;4.13;3.72;;;;;;;11.02;72.42;96952.72;4087780;28;20227;-54
2022/04/24 09:06:28;;;;;;;5.30;4.80;;;;;;;11.01;72.85;96954.66;4087476;28;20709;-51
2022/04/24 09:08:34;;;;;;;3.80;3.50;;;;;;;11.16;71.86;96951.75;4093870;29;20218;-54
2022/04/24 09:10:57;;;;;;;5.40;3.50;;;;;;;11.14;70.02;96953.97;4087713;28;20627;-54
2022/04/24 09:13:03;;;;;;;3.65;3.35;;;;;;;10.99;69.86;96945.94;4084723;28;20211;-51
2022/04/24 09:15:06;;;;;;;3.67;3.38;;;;;;;11.16;69.34;96957.22;4087971;28;20207;-52
2022/04/24 09:17:28;;;;;;;5.10;4.60;;;;;;;11.26;69.29;96950.81;4115472;28;20215;-52
2022/04/24 09:19:29;;;;;;;4.45;4.15;;;;;;;11.37;69.45;96958.59;4088226;28;20238;-52
2022/04/24 09:21:31;;;;;;;3.75;3.10;;;;;;;11.11;67.98;96960.03;4105276;28;20229;-51
2022/04/24 09:23:35;;;;;;;4.03;3.67;;;;;;;11.06;67.43;96957.38;4101837;28;20655;-53
2022/04/24 09:25:38;;;;;;;4.35;3.17;;;;;;;11.07;67.98;96964.47;4103094;28;20223;-53
2022/04/24 09:27:40;;;;;;;4.47;4.07;;;;;;;11.03;68.05;96966.13;4102431;28;20215;-54
2022/04/24 09:29:50;;;;;;;4.18;3.83;;;;;;;10.89;68.62;96957.00;4096071;28;20212;-54
2022/04/24 09:31:52;;;;;;;3.15;2.90;;;;;;;11.05;67.92;96966.66;4089561;28;20848;-55
2022/04/24 09:33:54;;;;;;;3.20;2.90;;;;;;;11.20;68.31;96974.72;4117746;28;20261;-51
2022/04/24 09:35:55;;;;;;;3.03;2.83;;;;;;;11.32;68.57;96972.34;4090516;28;20231;-51
2022/04/24 09:38:07;;;;;;;2.60;2.28;;;;;;;11.41;68.81;96965.13;4089388;28;20254;-54